TimeEDT,TemperatureF,Dew PointF,Humidity,Sea Level PressureIn,VisibilityMPH,Wind Direction,Wind SpeedMPH,Gust SpeedMPH,PrecipitationIn,Events,Conditions,WindDirDegrees,DateUTC
12:53 AM,41.0,37.0,86,30.25,10.0,Variable,5.8,-,N/A,,Overcast,0,2012-03-15 04:53:00
1:53 AM,39.9,37.0,89,30.26,10.0,NE,5.8,-,N/A,,Overcast,40,2012-03-15 05:53:00
2:53 AM,39.9,36.0,86,30.27,10.0,NNE,8.1,-,N/A,,Overcast,30,2012-03-15 06:53:00
3:53 AM,39.9,37.0,89,30.28,10.0,North,3.5,-,N/A,,Overcast,360,2012-03-15 07:53:00
4:24 AM,39.2,37.4,93,30.29,6.0,NNE,6.9,-,N/A,,Overcast,30,2012-03-15 08:24:00
4:53 AM,39.9,37.0,89,30.30,9.0,NNE,4.6,-,N/A,,Overcast,20,2012-03-15 08:53:00
5:53 AM,39.9,36.0,86,30.33,10.0,NNE,3.5,-,N/A,,Overcast,30,2012-03-15 09:53:00
6:53 AM,39.0,35.1,86,30.34,10.0,NNE,4.6,-,N/A,,Overcast,30,2012-03-15 10:53:00
7:05 AM,39.2,35.6,87,30.34,10.0,NE,8.1,-,N/A,,Overcast,40,2012-03-15 11:05:00
7:53 AM,39.9,35.1,83,30.35,10.0,NE,9.2,-,N/A,,Overcast,40,2012-03-15 11:53:00
8:53 AM,39.9,34.0,79,30.36,10.0,North,6.9,-,N/A,,Overcast,10,2012-03-15 12:53:00
9:53 AM,41.0,34.0,76,30.36,10.0,NNE,9.2,-,N/A,,Overcast,30,2012-03-15 13:53:00
10:04 AM,41.0,33.8,76,30.36,10.0,NNE,9.2,-,N/A,,Overcast,20,2012-03-15 14:04:00
10:53 AM,42.1,34.0,73,30.36,10.0,NNE,6.9,-,N/A,,Overcast,20,2012-03-15 14:53:00
11:53 AM,44.1,34.0,68,30.35,10.0,NE,10.4,-,N/A,,Overcast,40,2012-03-15 15:53:00
12:53 PM,45.0,34.0,65,30.35,10.0,ENE,8.1,-,N/A,,Overcast,60,2012-03-15 16:53:00
1:53 PM,46.0,34.0,63,30.32,10.0,ENE,8.1,-,N/A,,Overcast,60,2012-03-15 17:53:00
2:53 PM,45.0,33.1,63,30.32,10.0,Variable,3.5,-,N/A,,Mostly Cloudy,0,2012-03-15 18:53:00
3:53 PM,46.9,33.1,59,30.31,10.0,NE,6.9,-,N/A,,Mostly Cloudy,50,2012-03-15 19:53:00
4:53 PM,45.0,33.1,63,30.32,10.0,NE,8.1,-,N/A,,Mostly Cloudy,50,2012-03-15 20:53:00
5:53 PM,42.1,33.1,70,30.33,10.0,ESE,10.4,-,N/A,,Overcast,110,2012-03-15 21:53:00
6:53 PM,39.9,32.0,73,30.34,10.0,East,8.1,-,N/A,,Mostly Cloudy,80,2012-03-15 22:53:00
7:00 PM,39.2,30.2,70,30.34,10.0,East,9.2,-,N/A,,Mostly Cloudy,80,2012-03-15 23:00:00
7:53 PM,37.9,32.0,79,30.35,10.0,ENE,9.2,-,0.00,,Overcast,60,2012-03-15 23:53:00
8:53 PM,37.0,32.0,82,30.36,10.0,East,4.6,-,N/A,,Overcast,80,2012-03-16 00:53:00
9:53 PM,37.0,32.0,82,30.36,10.0,ENE,5.8,-,N/A,,Overcast,70,2012-03-16 01:53:00
10:53 PM,37.9,32.0,79,30.36,10.0,East,3.5,-,N/A,,Overcast,90,2012-03-16 02:53:00
11:53 PM,36.0,30.9,82,30.35,10.0,Calm,Calm,-,N/A,,Clear,0,2012-03-16 03:53:00